sensor_id;sensor_type;location;lat;lon;timestamp;pressure;altitude;pressure_sealevel;temperature;humidity
70127;BME280;57491;42.694;23.314;2023-08-17T00:01:41;95215.84;;;22.78;65.53
70127;BME280;57491;42.694;23.314;2023-08-17T00:04:08;95216.59;;;22.73;65.87
70127;BME280;57491;42.694;23.314;2023-08-17T00:06:36;95215.78;;;22.73;65.73
70127;BME280;57491;42.694;23.314;2023-08-17T00:09:03;95218.34;;;22.67;65.95
70127;BME280;57491;42.694;23.314;2023-08-17T00:11:30;95211.16;;;22.63;65.79
70127;BME280;57491;42.694;23.314;2023-08-17T00:13:57;95213.22;;;22.61;66.04
70127;BME280;57491;42.694;23.314;2023-08-17T00:16:24;95213.75;;;22.58;66.00
70127;BME280;57491;42.694;23.314;2023-08-17T00:18:53;95215.28;;;22.54;66.04
70127;BME280;57491;42.694;23.314;2023-08-17T00:21:20;95216.09;;;22.54;65.83
70127;BME280;57491;42.694;23.314;2023-08-17T00:23:47;95216.59;;;22.51;66.06
70127;BME280;57491;42.694;23.314;2023-08-17T00:26:14;95220.25;;;22.45;66.04
70127;BME280;57491;42.694;23.314;2023-08-17T00:28:41;95220.25;;;22.45;66.07
70127;BME280;57491;42.694;23.314;2023-08-17T00:31:08;95222.88;;;22.45;65.88
70127;BME280;57491;42.694;23.314;2023-08-17T00:33:35;95218.13;;;22.47;65.75
70127;BME280;57491;42.694;23.314;2023-08-17T00:36:04;95212.25;;;22.40;65.88
70127;BME280;57491;42.694;23.314;2023-08-17T00:38:32;95218.09;;;22.42;65.82
70127;BME280;57491;42.694;23.314;2023-08-17T00:40:59;95208.28;;;22.43;65.55
70127;BME280;57491;42.694;23.314;2023-08-17T00:43:26;95207.44;;;22.37;65.79
70127;BME280;57491;42.694;23.314;2023-08-17T00:45:53;95211.13;;;22.36;65.81
70127;BME280;57491;42.694;23.314;2023-08-17T00:48:20;95212.41;;;22.34;65.69
70127;BME280;57491;42.694;23.314;2023-08-17T00:50:48;95209.00;;;22.33;65.37
70127;BME280;57491;42.694;23.314;2023-08-17T00:53:17;95206.00;;;22.30;65.45
70127;BME280;57491;42.694;23.314;2023-08-17T00:55:45;95209.09;;;22.21;65.10
70127;BME280;57491;42.694;23.314;2023-08-17T00:58:13;95207.84;;;22.24;64.80
70127;BME280;57491;42.694;23.314;2023-08-17T01:00:40;95207.56;;;22.25;64.63
70127;BME280;57491;42.694;23.314;2023-08-17T01:03:07;95194.19;;;22.15;64.33
70127;BME280;57491;42.694;23.314;2023-08-17T01:05:35;95202.78;;;22.22;64.41
70127;BME280;57491;42.694;23.314;2023-08-17T01:08:03;95200.88;;;22.18;64.47
70127;BME280;57491;42.694;23.314;2023-08-17T01:10:33;95209.41;;;22.25;63.88
70127;BME280;57491;42.694;23.314;2023-08-17T01:13:09;95203.00;;;22.21;63.79
70127;BME280;57491;42.694;23.314;2023-08-17T01:15:45;95198.28;;;22.23;63.52
70127;BME280;57491;42.694;23.314;2023-08-17T01:18:19;95204.69;;;22.27;62.96
70127;BME280;57491;42.694;23.314;2023-08-17T01:20:49;95204.16;;;22.30;62.80
70127;BME280;57491;42.694;23.314;2023-08-17T01:23:18;95200.56;;;22.14;62.74
70127;BME280;57491;42.694;23.314;2023-08-17T01:25:46;95200.88;;;22.18;62.75
70127;BME280;57491;42.694;23.314;2023-08-17T01:28:13;95201.84;;;22.12;62.67
70127;BME280;57491;42.694;23.314;2023-08-17T01:30:44;95202.16;;;22.15;62.63
70127;BME280;57491;42.694;23.314;2023-08-17T01:33:18;95197.84;;;22.09;62.74
70127;BME280;57491;42.694;23.314;2023-08-17T01:35:54;95192.00;;;22.07;62.65
70127;BME280;57491;42.694;23.314;2023-08-17T01:38:25;95197.66;;;22.16;62.61
70127;BME280;57491;42.694;23.314;2023-08-17T01:40:55;95203.28;;;22.19;62.29
70127;BME280;57491;42.694;23.314;2023-08-17T01:43:24;95197.97;;;22.19;62.50
70127;BME280;57491;42.694;23.314;2023-08-17T01:45:51;95197.66;;;22.16;62.69
70127;BME280;57491;42.694;23.314;2023-08-17T01:48:18;95201.38;;;22.15;62.57
70127;BME280;57491;42.694;23.314;2023-08-17T01:50:45;95201.38;;;22.15;62.69
70127;BME280;57491;42.694;23.314;2023-08-17T01:53:12;95197.66;;;22.16;62.50
70127;BME280;57491;42.694;23.314;2023-08-17T01:55:41;95195.75;;;22.11;62.58
70127;BME280;57491;42.694;23.314;2023-08-17T01:58:08;95190.81;;;22.20;62.27
70127;BME280;57491;42.694;23.314;2023-08-17T02:00:35;95199.25;;;22.17;62.57
70127;BME280;57491;42.694;23.314;2023-08-17T02:03:02;95198.72;;;22.15;62.46
70127;BME280;57491;42.694;23.314;2023-08-17T02:05:29;95198.72;;;22.15;62.17
70127;BME280;57491;42.694;23.314;2023-08-17T02:07:56;95194.47;;;22.14;62.03
70127;BME280;57491;42.694;23.314;2023-08-17T02:10:23;95189.69;;;22.11;62.21
70127;BME280;57491;42.694;23.314;2023-08-17T02:12:51;95199.13;;;22.07;62.06
70127;BME280;57491;42.694;23.314;2023-08-17T02:15:18;95202.84;;;22.06;62.21
70127;BME280;57491;42.694;23.314;2023-08-17T02:17:45;95188.53;;;22.07;61.67
70127;BME280;57491;42.694;23.314;2023-08-17T02:20:13;95186.34;;;21.99;61.58
70127;BME280;57491;42.694;23.314;2023-08-17T02:22:40;95199.84;;;21.97;61.16
70127;BME280;57491;42.694;23.314;2023-08-17T02:25:08;95181.78;;;21.94;61.03
70127;BME280;57491;42.694;23.314;2023-08-17T02:27:35;95193.75;;;21.97;60.85
70127;BME280;57491;42.694;23.314;2023-08-17T02:30:04;95196.53;;;21.90;60.98
70127;BME280;57491;42.694;23.314;2023-08-17T02:32:31;95184.75;;;21.81;60.97
70127;BME280;57491;42.694;23.314;2023-08-17T02:34:58;95190.44;;;21.90;60.49
70127;BME280;57491;42.694;23.314;2023-08-17T02:37:25;95194.13;;;21.89;60.82
70127;BME280;57491;42.694;23.314;2023-08-17T02:39:52;95192.53;;;21.88;60.49
70127;BME280;57491;42.694;23.314;2023-08-17T02:42:19;95179.78;;;21.85;60.37
70127;BME280;57491;42.694;23.314;2023-08-17T02:44:46;95193.00;;;21.85;60.47
70127;BME280;57491;42.694;23.314;2023-08-17T02:47:15;95185.88;;;21.85;60.01
70127;BME280;57491;42.694;23.314;2023-08-17T02:49:42;95185.28;;;21.78;60.06
70127;BME280;57491;42.694;23.314;2023-08-17T02:52:09;95187.66;;;21.79;60.14
70127;BME280;57491;42.694;23.314;2023-08-17T02:54:36;95182.78;;;21.71;60.11
70127;BME280;57491;42.694;23.314;2023-08-17T02:57:03;95173.75;;;21.67;60.11
70127;BME280;57491;42.694;23.314;2023-08-17T02:59:30;95184.97;;;21.74;60.04
70127;BME280;57491;42.694;23.314;2023-08-17T03:01:57;95181.75;;;21.72;60.45
70127;BME280;57491;42.694;23.314;2023-08-17T03:04:26;95173.66;;;21.62;60.40
70127;BME280;57491;42.694;23.314;2023-08-17T03:06:53;95181.53;;;21.57;60.63
70127;BME280;57491;42.694;23.314;2023-08-17T03:09:21;95190.84;;;21.60;60.83
70127;BME280;57491;42.694;23.314;2023-08-17T03:11:48;95183.94;;;21.59;60.79
70127;BME280;57491;42.694;23.314;2023-08-17T03:14:14;95193.72;;;21.58;60.91
70127;BME280;57491;42.694;23.314;2023-08-17T03:16:42;95188.13;;;21.55;60.73
70127;BME280;57491;42.694;23.314;2023-08-17T03:19:08;95186.78;;;21.52;60.80
70127;BME280;57491;42.694;23.314;2023-08-17T03:21:38;95190.78;;;21.55;60.91
70127;BME280;57491;42.694;23.314;2023-08-17T03:24:06;95187.91;;;21.56;60.57
70127;BME280;57491;42.694;23.314;2023-08-17T03:26:33;95188.13;;;21.55;60.48
70127;BME280;57491;42.694;23.314;2023-08-17T03:29:00;95189.47;;;21.57;60.46
70127;BME280;57491;42.694;23.314;2023-08-17T03:31:27;95191.09;;;21.58;60.36
70127;BME280;57491;42.694;23.314;2023-08-17T03:33:54;95186.59;;;21.59;60.30
70127;BME280;57491;42.694;23.314;2023-08-17T03:36:22;95192.63;;;21.54;60.09
70127;BME280;57491;42.694;23.314;2023-08-17T03:38:50;95193.50;;;21.60;60.37
70127;BME280;57491;42.694;23.314;2023-08-17T03:41:18;95184.13;;;21.52;60.39
70127;BME280;57491;42.694;23.314;2023-08-17T03:43:45;95195.34;;;21.59;60.42
70127;BME280;57491;42.694;23.314;2023-08-17T03:46:12;95197.03;;;21.65;59.99
70127;BME280;57491;42.694;23.314;2023-08-17T03:48:39;95197.47;;;21.62;59.71
70127;BME280;57491;42.694;23.314;2023-08-17T03:51:06;95198.59;;;21.66;59.67
70127;BME280;57491;42.694;23.314;2023-08-17T03:53:33;95197.03;;;21.65;59.26
70127;BME280;57491;42.694;23.314;2023-08-17T03:56:01;95203.88;;;21.66;59.03
70127;BME280;57491;42.694;23.314;2023-08-17T03:58:28;95204.53;;;21.73;58.57
70127;BME280;57491;42.694;23.314;2023-08-17T04:01:00;95206.91;;;21.75;58.54
70127;BME280;57491;42.694;23.314;2023-08-17T04:03:27;95205.72;;;21.83;58.71
70127;BME280;57491;42.694;23.314;2023-08-17T04:05:55;95206.81;;;21.87;58.35
70127;BME280;57491;42.694;23.314;2023-08-17T04:08:22;95206.88;;;21.92;57.63
70127;BME280;57491;42.694;23.314;2023-08-17T04:10:49;95209.34;;;21.98;57.65
70127;BME280;57491;42.694;23.314;2023-08-17T04:13:17;95209.88;;;21.95;57.98
70127;BME280;57491;42.694;23.314;2023-08-17T04:15:44;95213.63;;;21.99;57.72
70127;BME280;57491;42.694;23.314;2023-08-17T04:18:11;95220.00;;;22.03;57.69
70127;BME280;57491;42.694;23.314;2023-08-17T04:20:38;95216.16;;;22.11;57.91
70127;BME280;57491;42.694;23.314;2023-08-17T04:23:05;95217.28;;;22.20;57.61
70127;BME280;57491;42.694;23.314;2023-08-17T04:25:33;95212.97;;;22.36;57.34
70127;BME280;57491;42.694;23.314;2023-08-17T04:28:00;95214.19;;;22.50;56.85
70127;BME280;57491;42.694;23.314;2023-08-17T04:30:29;95212.94;;;22.57;57.30
70127;BME280;57491;42.694;23.314;2023-08-17T04:32:56;95202.53;;;22.73;56.54
70127;BME280;57491;42.694;23.314;2023-08-17T04:35:23;95201.06;;;22.87;56.59
70127;BME280;57491;42.694;23.314;2023-08-17T04:37:50;95209.56;;;22.89;56.83
70127;BME280;57491;42.694;23.314;2023-08-17T04:40:17;95213.94;;;23.05;56.79
70127;BME280;57491;42.694;23.314;2023-08-17T04:42:44;95206.53;;;23.07;57.12
70127;BME280;57491;42.694;23.314;2023-08-17T04:45:11;95203.06;;;23.06;57.13
70127;BME280;57491;42.694;23.314;2023-08-17T04:47:39;95205.75;;;23.11;57.13
70127;BME280;57491;42.694;23.314;2023-08-17T04:50:07;95210.88;;;23.18;56.65
70127;BME280;57491;42.694;23.314;2023-08-17T04:52:34;95206.09;;;23.20;56.44
70127;BME280;57491;42.694;23.314;2023-08-17T04:55:01;95204.53;;;23.24;56.19
70127;BME280;57491;42.694;23.314;2023-08-17T04:57:29;95207.78;;;23.31;56.07
70127;BME280;57491;42.694;23.314;2023-08-17T04:59:56;95201.38;;;23.27;56.08
70127;BME280;57491;42.694;23.314;2023-08-17T05:02:23;95209.06;;;23.29;55.71
70127;BME280;57491;42.694;23.314;2023-08-17T05:04:51;95213.13;;;23.36;55.56
70127;BME280;57491;42.694;23.314;2023-08-17T05:07:18;95203.59;;;23.40;55.28
70127;BME280;57491;42.694;23.314;2023-08-17T05:09:45;95205.72;;;23.43;54.70
70127;BME280;57491;42.694;23.314;2023-08-17T05:12:12;95203.72;;;23.55;54.33
70127;BME280;57491;42.694;23.314;2023-08-17T05:14:40;95203.28;;;23.74;54.09
70127;BME280;57491;42.694;23.314;2023-08-17T05:17:07;95207.06;;;23.88;52.46
70127;BME280;57491;42.694;23.314;2023-08-17T05:19:34;95208.25;;;24.07;52.09
70127;BME280;57491;42.694;23.314;2023-08-17T05:22:02;95209.41;;;24.26;51.15
70127;BME280;57491;42.694;23.314;2023-08-17T05:24:29;95210.78;;;24.39;50.87
70127;BME280;57491;42.694;23.314;2023-08-17T05:26:56;95211.06;;;24.53;50.86
70127;BME280;57491;42.694;23.314;2023-08-17T05:29:23;95203.91;;;24.63;50.47
70127;BME280;57491;42.694;23.314;2023-08-17T05:31:50;95208.97;;;24.65;50.43
70127;BME280;57491;42.694;23.314;2023-08-17T05:34:18;95211.66;;;24.80;49.96
70127;BME280;57491;42.694;23.314;2023-08-17T05:36:45;95212.22;;;24.87;49.46
70127;BME280;57491;42.694;23.314;2023-08-17T05:39:13;95212.25;;;24.97;49.53
70127;BME280;57491;42.694;23.314;2023-08-17T05:41:40;95193.88;;;25.11;48.59
70127;BME280;57491;42.694;23.314;2023-08-17T05:44:07;95216.50;;;25.33;48.42
70127;BME280;57491;42.694;23.314;2023-08-17T05:46:35;95208.47;;;25.49;47.63
70127;BME280;57491;42.694;23.314;2023-08-17T05:49:02;95195.19;;;25.44;47.72
70127;BME280;57491;42.694;23.314;2023-08-17T05:51:29;95210.34;;;25.63;47.08
70127;BME280;57491;42.694;23.314;2023-08-17T05:53:57;95218.88;;;25.75;47.02
70127;BME280;57491;42.694;23.314;2023-08-17T05:56:25;95219.34;;;25.93;45.96
70127;BME280;57491;42.694;23.314;2023-08-17T05:58:53;95210.78;;;26.06;45.65
70127;BME280;57491;42.694;23.314;2023-08-17T06:01:20;95210.47;;;26.17;45.99
70127;BME280;57491;42.694;23.314;2023-08-17T06:03:47;95219.44;;;26.47;46.34
70127;BME280;57491;42.694;23.314;2023-08-17T06:06:15;95212.13;;;26.62;46.50
70127;BME280;57491;42.694;23.314;2023-08-17T06:08:42;95216.00;;;26.90;46.28
70127;BME280;57491;42.694;23.314;2023-08-17T06:11:09;95220.66;;;27.08;45.61
70127;BME280;57491;42.694;23.314;2023-08-17T06:13:38;95225.41;;;27.17;45.95
70127;BME280;57491;42.694;23.314;2023-08-17T06:16:05;95211.94;;;27.32;45.67
70127;BME280;57491;42.694;23.314;2023-08-17T06:18:32;95209.50;;;27.35;46.09
70127;BME280;57491;42.694;23.314;2023-08-17T06:20:59;95209.13;;;27.47;46.30
70127;BME280;57491;42.694;23.314;2023-08-17T06:23:26;95215.44;;;27.61;46.49
70127;BME280;57491;42.694;23.314;2023-08-17T06:25:56;95217.69;;;27.78;46.25
70127;BME280;57491;42.694;23.314;2023-08-17T06:28:24;95203.34;;;27.92;46.09
70127;BME280;57491;42.694;23.314;2023-08-17T06:30:52;95217.28;;;28.18;45.84
70127;BME280;57491;42.694;23.314;2023-08-17T06:33:20;95213.91;;;28.31;45.49
70127;BME280;57491;42.694;23.314;2023-08-17T06:35:47;95217.81;;;28.39;45.78
70127;BME280;57491;42.694;23.314;2023-08-17T06:38:14;95219.72;;;28.57;45.19
70127;BME280;57491;42.694;23.314;2023-08-17T06:40:41;95227.19;;;28.79;45.45
70127;BME280;57491;42.694;23.314;2023-08-17T06:43:08;95224.31;;;28.94;44.09
70127;BME280;57491;42.694;23.314;2023-08-17T06:45:36;95223.28;;;29.09;43.62
70127;BME280;57491;42.694;23.314;2023-08-17T06:48:04;95227.75;;;29.32;42.47
70127;BME280;57491;42.694;23.314;2023-08-17T06:50:32;95222.63;;;29.36;42.49
70127;BME280;57491;42.694;23.314;2023-08-17T06:52:59;95230.84;;;29.20;43.31
70127;BME280;57491;42.694;23.314;2023-08-17T06:55:26;95223.03;;;29.24;42.89
70127;BME280;57491;42.694;23.314;2023-08-17T06:57:53;95225.06;;;29.32;43.38
70127;BME280;57491;42.694;23.314;2023-08-17T07:00:21;95218.75;;;29.42;43.39
70127;BME280;57491;42.694;23.314;2023-08-17T07:02:48;95226.53;;;29.57;40.78
70127;BME280;57491;42.694;23.314;2023-08-17T07:05:17;95225.56;;;29.66;40.08
70127;BME280;57491;42.694;23.314;2023-08-17T07:07:45;95215.84;;;29.70;40.09
70127;BME280;57491;42.694;23.314;2023-08-17T07:10:12;95231.16;;;29.84;39.57
70127;BME280;57491;42.694;23.314;2023-08-17T07:12:39;95229.81;;;30.00;37.60
70127;BME280;57491;42.694;23.314;2023-08-17T07:15:07;95223.88;;;30.03;38.68
70127;BME280;57491;42.694;23.314;2023-08-17T07:17:34;95219.78;;;30.19;38.35
70127;BME280;57491;42.694;23.314;2023-08-17T07:20:02;95216.72;;;30.12;36.36
70127;BME280;57491;42.694;23.314;2023-08-17T07:22:31;95218.00;;;30.28;36.38
70127;BME280;57491;42.694;23.314;2023-08-17T07:24:58;95216.50;;;30.22;34.88
70127;BME280;57491;42.694;23.314;2023-08-17T07:27:25;95213.22;;;29.98;35.41
70127;BME280;57491;42.694;23.314;2023-08-17T07:29:52;95214.13;;;30.07;33.50
70127;BME280;57491;42.694;23.314;2023-08-17T07:32:19;95209.16;;;30.00;33.68
70127;BME280;57491;42.694;23.314;2023-08-17T07:34:47;95205.19;;;29.98;34.72
70127;BME280;57491;42.694;23.314;2023-08-17T07:37:14;95207.25;;;30.28;33.69
70127;BME280;57491;42.694;23.314;2023-08-17T07:39:43;95208.34;;;30.41;34.54
70127;BME280;57491;42.694;23.314;2023-08-17T07:42:10;95206.94;;;30.71;33.59
70127;BME280;57491;42.694;23.314;2023-08-17T07:44:37;95204.38;;;31.02;33.57
70127;BME280;57491;42.694;23.314;2023-08-17T07:47:05;95205.25;;;31.33;33.25
70127;BME280;57491;42.694;23.314;2023-08-17T07:49:32;95206.75;;;31.70;32.82
70127;BME280;57491;42.694;23.314;2023-08-17T07:51:59;95206.38;;;31.94;31.96
70127;BME280;57491;42.694;23.314;2023-08-17T07:54:26;95213.00;;;32.18;31.00
70127;BME280;57491;42.694;23.314;2023-08-17T07:56:54;95210.16;;;32.23;30.93
70127;BME280;57491;42.694;23.314;2023-08-17T07:59:21;95202.41;;;32.22;30.84
70127;BME280;57491;42.694;23.314;2023-08-17T08:01:49;95201.19;;;32.45;30.56
70127;BME280;57491;42.694;23.314;2023-08-17T08:04:16;95195.25;;;32.74;29.82
70127;BME280;57491;42.694;23.314;2023-08-17T08:06:44;95193.53;;;32.87;29.77
70127;BME280;57491;42.694;23.314;2023-08-17T08:09:11;95203.97;;;33.05;29.62
70127;BME280;57491;42.694;23.314;2023-08-17T08:11:38;95188.44;;;33.02;28.97
70127;BME280;57491;42.694;23.314;2023-08-17T08:14:06;95188.28;;;32.99;29.21
70127;BME280;57491;42.694;23.314;2023-08-17T08:16:33;95190.69;;;33.00;29.44
70127;BME280;57491;42.694;23.314;2023-08-17T08:19:00;95192.44;;;33.22;29.05
70127;BME280;57491;42.694;23.314;2023-08-17T08:21:27;95187.03;;;33.31;29.07
70127;BME280;57491;42.694;23.314;2023-08-17T08:23:54;95183.84;;;33.11;29.21
70127;BME280;57491;42.694;23.314;2023-08-17T08:26:21;95187.50;;;33.24;29.36
70127;BME280;57491;42.694;23.314;2023-08-17T08:28:48;95181.16;;;33.11;28.55
70127;BME280;57491;42.694;23.314;2023-08-17T08:31:16;95185.91;;;33.40;28.37
70127;BME280;57491;42.694;23.314;2023-08-17T08:33:43;95188.41;;;33.54;29.11
70127;BME280;57491;42.694;23.314;2023-08-17T08:36:11;95189.03;;;33.51;28.72
70127;BME280;57491;42.694;23.314;2023-08-17T08:38:37;95185.75;;;33.45;28.81
70127;BME280;57491;42.694;23.314;2023-08-17T08:41:04;95184.28;;;33.48;29.20
70127;BME280;57491;42.694;23.314;2023-08-17T08:43:32;95180.19;;;33.33;29.68
70127;BME280;57491;42.694;23.314;2023-08-17T08:45:59;95185.03;;;33.74;29.64
70127;BME280;57491;42.694;23.314;2023-08-17T08:48:29;95184.59;;;33.63;29.15
70127;BME280;57491;42.694;23.314;2023-08-17T08:50:57;95179.84;;;33.52;29.51
70127;BME280;57491;42.694;23.314;2023-08-17T08:53:32;95165.38;;;33.65;29.11
70127;BME280;57491;42.694;23.314;2023-08-17T08:56:01;95158.38;;;33.64;29.38
70127;BME280;57491;42.694;23.314;2023-08-17T08:58:29;95173.44;;;33.82;29.38
70127;BME280;57491;42.694;23.314;2023-08-17T09:00:58;95173.06;;;33.92;28.25
70127;BME280;57491;42.694;23.314;2023-08-17T09:03:27;95169.38;;;34.05;28.78
70127;BME280;57491;42.694;23.314;2023-08-17T09:05:56;95159.16;;;34.20;27.57
70127;BME280;57491;42.694;23.314;2023-08-17T09:08:27;95160.50;;;33.67;28.71
70127;BME280;57491;42.694;23.314;2023-08-17T09:10:54;95150.03;;;34.03;28.26
70127;BME280;57491;42.694;23.314;2023-08-17T09:13:21;95149.06;;;34.08;28.61
70127;BME280;57491;42.694;23.314;2023-08-17T09:15:48;95141.38;;;34.48;27.84
70127;BME280;57491;42.694;23.314;2023-08-17T09:18:16;95144.72;;;34.45;27.52
70127;BME280;57491;42.694;23.314;2023-08-17T09:20:46;95146.34;;;34.17;27.53
70127;BME280;57491;42.694;23.314;2023-08-17T09:23:14;95150.53;;;34.56;27.29
70127;BME280;57491;42.694;23.314;2023-08-17T09:25:42;95145.81;;;34.73;27.27
70127;BME280;57491;42.694;23.314;2023-08-17T09:28:10;95141.84;;;35.12;26.28
70127;BME280;57491;42.694;23.314;2023-08-17T09:30:52;95135.91;;;35.52;26.00
70127;BME280;57491;42.694;23.314;2023-08-17T09:33:20;95128.88;;;35.96;25.69
70127;BME280;57491;42.694;23.314;2023-08-17T09:35:50;95127.84;;;36.37;24.80
70127;BME280;57491;42.694;23.314;2023-08-17T09:38:17;95118.00;;;36.69;24.34
70127;BME280;57491;42.694;23.314;2023-08-17T09:40:45;95115.19;;;36.93;24.07
70127;BME280;57491;42.694;23.314;2023-08-17T09:43:13;95126.13;;;36.69;24.33
70127;BME280;57491;42.694;23.314;2023-08-17T09:45:42;95105.41;;;36.36;24.58
70127;BME280;57491;42.694;23.314;2023-08-17T09:48:10;95108.13;;;35.75;24.99
70127;BME280;57491;42.694;23.314;2023-08-17T09:50:37;95108.69;;;35.93;25.01
70127;BME280;57491;42.694;23.314;2023-08-17T09:53:05;95101.34;;;36.30;24.72
70127;BME280;57491;42.694;23.314;2023-08-17T09:55:32;95103.59;;;36.80;23.95
70127;BME280;57491;42.694;23.314;2023-08-17T09:58:00;95107.34;;;37.03;23.21
70127;BME280;57491;42.694;23.314;2023-08-17T10:00:27;95092.19;;;36.35;24.04
70127;BME280;57491;42.694;23.314;2023-08-17T10:02:56;95078.28;;;36.60;23.46
70127;BME280;57491;42.694;23.314;2023-08-17T10:05:28;95094.53;;;36.60;22.92
70127;BME280;57491;42.694;23.314;2023-08-17T10:07:59;95100.94;;;36.68;22.95
70127;BME280;57491;42.694;23.314;2023-08-17T10:10:29;95092.38;;;36.94;22.22
70127;BME280;57491;42.694;23.314;2023-08-17T10:13:05;95089.22;;;36.92;22.52
70127;BME280;57491;42.694;23.314;2023-08-17T10:15:37;95079.38;;;36.99;22.20
70127;BME280;57491;42.694;23.314;2023-08-17T10:18:15;95098.22;;;37.08;22.34
70127;BME280;57491;42.694;23.314;2023-08-17T10:20:49;95093.97;;;36.95;22.20
70127;BME280;57491;42.694;23.314;2023-08-17T10:23:19;95095.09;;;36.94;22.03
70127;BME280;57491;42.694;23.314;2023-08-17T10:25:50;95088.03;;;37.05;21.59
70127;BME280;57491;42.694;23.314;2023-08-17T10:28:19;95059.94;;;37.25;21.41
70127;BME280;57491;42.694;23.314;2023-08-17T10:30:47;95074.31;;;37.57;21.39
70127;BME280;57491;42.694;23.314;2023-08-17T10:33:15;95071.69;;;37.76;21.14
70127;BME280;57491;42.694;23.314;2023-08-17T10:35:43;95090.09;;;37.99;20.90
70127;BME280;57491;42.694;23.314;2023-08-17T10:38:11;95085.59;;;38.22;21.41
70127;BME280;57491;42.694;23.314;2023-08-17T10:40:41;95083.66;;;38.57;20.76
70127;BME280;57491;42.694;23.314;2023-08-17T10:43:10;95074.59;;;38.88;20.43
70127;BME280;57491;42.694;23.314;2023-08-17T10:45:38;95074.00;;;39.17;19.81
70127;BME280;57491;42.694;23.314;2023-08-17T10:48:27;95073.59;;;38.42;20.93
70127;BME280;57491;42.694;23.314;2023-08-17T10:51:03;95076.66;;;38.21;20.04
70127;BME280;57491;42.694;23.314;2023-08-17T10:53:35;95075.13;;;37.58;20.52
70127;BME280;57491;42.694;23.314;2023-08-17T10:56:07;95063.97;;;37.31;21.20
70127;BME280;57491;42.694;23.314;2023-08-17T10:58:36;95068.00;;;37.84;21.90
70127;BME280;57491;42.694;23.314;2023-08-17T11:01:03;95068.78;;;38.16;21.81
70127;BME280;57491;42.694;23.314;2023-08-17T11:03:32;95059.06;;;38.50;21.11
70127;BME280;57491;42.694;23.314;2023-08-17T11:06:15;95054.88;;;39.14;20.82
70127;BME280;57491;42.694;23.314;2023-08-17T11:08:53;95053.53;;;39.69;20.40
70127;BME280;57491;42.694;23.314;2023-08-17T11:11:22;95051.66;;;39.96;20.17
70127;BME280;57491;42.694;23.314;2023-08-17T11:13:52;95045.94;;;40.31;19.84
70127;BME280;57491;42.694;23.314;2023-08-17T11:16:20;95045.91;;;40.57;18.99
70127;BME280;57491;42.694;23.314;2023-08-17T11:18:48;95053.66;;;40.55;19.32
70127;BME280;57491;42.694;23.314;2023-08-17T11:21:16;95053.91;;;40.43;19.36
70127;BME280;57491;42.694;23.314;2023-08-17T11:23:43;95046.50;;;40.43;19.02
70127;BME280;57491;42.694;23.314;2023-08-17T11:26:11;95042.22;;;40.42;19.00
70127;BME280;57491;42.694;23.314;2023-08-17T11:28:38;95031.72;;;40.74;18.99
70127;BME280;57491;42.694;23.314;2023-08-17T11:31:10;95024.53;;;40.92;19.40
70127;BME280;57491;42.694;23.314;2023-08-17T11:33:38;95050.72;;;41.00;18.55
70127;BME280;57491;42.694;23.314;2023-08-17T11:36:06;95045.41;;;40.48;19.10
70127;BME280;57491;42.694;23.314;2023-08-17T11:38:35;95039.97;;;40.81;18.65
70127;BME280;57491;42.694;23.314;2023-08-17T11:41:03;95042.25;;;40.46;18.92
70127;BME280;57491;42.694;23.314;2023-08-17T11:43:32;95039.50;;;40.16;19.51
70127;BME280;57491;42.694;23.314;2023-08-17T11:46:00;95024.91;;;39.75;20.17
70127;BME280;57491;42.694;23.314;2023-08-17T11:48:30;95019.66;;;39.89;20.78
70127;BME280;57491;42.694;23.314;2023-08-17T11:50:57;95016.56;;;40.47;19.35
70127;BME280;57491;42.694;23.314;2023-08-17T11:53:32;95020.91;;;40.22;19.11
70127;BME280;57491;42.694;23.314;2023-08-17T11:55:59;95022.19;;;39.75;19.67
70127;BME280;57491;42.694;23.314;2023-08-17T11:58:36;95022.28;;;39.37;20.23
70127;BME280;57491;42.694;23.314;2023-08-17T12:01:09;95007.22;;;39.20;20.59
70127;BME280;57491;42.694;23.314;2023-08-17T12:03:39;95019.81;;;39.51;20.31
70127;BME280;57491;42.694;23.314;2023-08-17T12:06:08;95024.91;;;39.75;19.94
70127;BME280;57491;42.694;23.314;2023-08-17T12:08:36;95001.22;;;39.79;20.36
70127;BME280;57491;42.694;23.314;2023-08-17T12:11:03;95021.63;;;39.66;20.09
70127;BME280;57491;42.694;23.314;2023-08-17T12:13:32;95006.41;;;38.77;20.63
70127;BME280;57491;42.694;23.314;2023-08-17T12:15:59;95015.63;;;38.34;21.35
70127;BME280;57491;42.694;23.314;2023-08-17T12:18:26;95013.63;;;38.31;20.84
70127;BME280;57491;42.694;23.314;2023-08-17T12:20:55;95016.41;;;38.16;21.30
70127;BME280;57491;42.694;23.314;2023-08-17T12:23:22;95010.06;;;38.27;21.41
70127;BME280;57491;42.694;23.314;2023-08-17T12:25:53;94994.88;;;37.57;22.61
70127;BME280;57491;42.694;23.314;2023-08-17T12:28:21;95007.91;;;37.67;23.34
70127;BME280;57491;42.694;23.314;2023-08-17T12:30:57;95007.31;;;37.92;24.36
70127;BME280;57491;42.694;23.314;2023-08-17T12:33:25;95007.91;;;37.67;24.83
70127;BME280;57491;42.694;23.314;2023-08-17T12:35:52;95006.50;;;37.57;24.93
70127;BME280;57491;42.694;23.314;2023-08-17T12:38:21;95001.34;;;37.68;25.21
70127;BME280;57491;42.694;23.314;2023-08-17T12:40:48;95000.47;;;37.64;25.31
70127;BME280;57491;42.694;23.314;2023-08-17T12:43:16;95001.59;;;37.31;25.41
70127;BME280;57491;42.694;23.314;2023-08-17T12:45:43;95006.91;;;37.12;26.32
70127;BME280;57491;42.694;23.314;2023-08-17T12:48:10;95008.91;;;36.99;26.23
70127;BME280;57491;42.694;23.314;2023-08-17T12:50:37;95009.69;;;37.00;26.24
70127;BME280;57491;42.694;23.314;2023-08-17T12:53:04;95001.44;;;36.81;26.69
70127;BME280;57491;42.694;23.314;2023-08-17T12:55:32;95005.09;;;36.73;27.23